»·PEaware :: COA386 KIAH-MMMX

COA386 :: KIAH-MMMX

FLIGHT INFORMATION

Flight Status: Arrived
Operator:
Continental Air Lines
More flights by this operator :: More flights under this callsign
Pilot: Robby H. (353)
Aircraft: BOEING 737-800
(B738)
More flights by this aircraft type
Origin: KIAH G Bush Intercontinental/Houst
United States
Destination: MMMX Lic Benito Juarez Intl
Mexico
More flights between these airports :: More routes between these airports
Route: DIRECT
File this flight plan on PilotEdge
Remarks: / V /
Altitude:
(Current/Filed)
34,000ft
Speed:
(Current/Filed)
532kts
Departed: 07-Jan-12 03:26 PM
Arrived: 07-Jan-12 05:06 PM
Distance/Time
Traveled:
665nm/1:39
Distance/Time
To Go:
Arrived

Flight Plot

Page will automatically refresh every two minutes.


Map Options




Map Legend


Flown Route
Filed Route
Departure Airport
Arrival Airport
Navaid (VOR, NDB)
Fix

Horizontal Profiles

Position Reports

Time Latitude Longitude Heading Altitude Ground
Speed
07-Jan-12 15:20 29.984765 -95.331563 314 109ft 1kts
07-Jan-12 15:21 29.984338 -95.331068 314 109ft 2kts
07-Jan-12 15:22 29.983728 -95.330914 179 109ft 3kts
07-Jan-12 15:23 29.982016 -95.333415 250 109ft 21kts
07-Jan-12 15:24 29.977627 -95.330608 89 109ft 73kts
07-Jan-12 15:25 29.977640 -95.319534 89 110ft 149kts
07-Jan-12 15:26 29.975517 -95.262632 109 1532ft 248kts
07-Jan-12 15:27 29.914868 -95.250709 196 3370ft 251kts
07-Jan-12 15:28 29.849721 -95.269731 194 5053ft 259kts
07-Jan-12 15:29 29.786797 -95.288043 194 6640ft 265kts
07-Jan-12 15:30 29.720496 -95.307347 194 8272ft 274kts
07-Jan-12 15:31 29.647333 -95.328543 196 10054ft 277kts
07-Jan-12 15:32 29.565866 -95.352316 196 11302ft 334kts
07-Jan-12 15:33 29.468961 -95.380584 196 12330ft 397kts
07-Jan-12 15:34 29.360737 -95.411807 196 13326ft 408kts
07-Jan-12 15:35 29.247557 -95.444294 196 14345ft 415kts
07-Jan-12 15:36 29.138542 -95.475550 197 15313ft 421kts
07-Jan-12 15:37 29.022945 -95.508664 197 16324ft 428kts
07-Jan-12 15:38 28.906483 -95.542033 197 17323ft 435kts
07-Jan-12 15:39 28.801667 -95.597684 229 18333ft 432kts
07-Jan-12 15:40 28.730524 -95.706619 237 19320ft 429kts
07-Jan-12 15:41 28.661203 -95.816247 236 20310ft 434kts
07-Jan-12 15:42 28.576688 -95.946690 236 21486ft 439kts
07-Jan-12 15:43 28.517601 -96.037462 236 22297ft 443kts
07-Jan-12 15:44 28.443155 -96.151520 236 23308ft 448kts
07-Jan-12 15:45 28.368507 -96.265720 233 24285ft 454kts
07-Jan-12 15:46 28.294037 -96.379249 233 25229ft 461kts
07-Jan-12 15:47 28.217476 -96.495575 232 26204ft 465kts
07-Jan-12 15:48 28.110552 -96.568094 200 27135ft 467kts
07-Jan-12 15:49 27.986294 -96.605585 202 28138ft 463kts
07-Jan-12 15:50 27.864211 -96.650319 204 29120ft 458kts
07-Jan-12 15:51 27.746458 -96.695152 204 30105ft 451kts
07-Jan-12 15:52 27.628551 -96.740002 198 31063ft 443kts
07-Jan-12 15:53 27.511741 -96.784120 198 32048ft 432kts
07-Jan-12 15:54 27.400916 -96.825944 198 33002ft 419kts
07-Jan-12 15:55 27.293653 -96.866312 198 33940ft 403kts
07-Jan-12 15:56 27.186100 -96.906774 198 33994ft 411kts
07-Jan-12 15:57 27.077825 -96.947385 198 33995ft 419kts
07-Jan-12 15:58 26.966437 -96.989116 198 33990ft 427kts
07-Jan-12 15:59 26.851908 -97.031905 198 33995ft 435kts
07-Jan-12 16:00 26.737422 -97.074547 198 33996ft 443kts
07-Jan-12 16:01 26.640909 -97.110424 204 34027ft 448kts
07-Jan-12 16:03 26.402956 -97.198669 204 34041ft 462kts
07-Jan-12 16:04 26.284932 -97.242407 204 34042ft 463kts
07-Jan-12 16:05 26.162085 -97.287664 204 34042ft 463kts
07-Jan-12 16:06 26.044486 -97.330923 204 34039ft 463kts
07-Jan-12 16:07 25.930064 -97.389345 217 34038ft 451kts
07-Jan-12 16:08 25.826736 -97.470276 219 34015ft 450kts
07-Jan-12 16:09 25.716226 -97.535211 209 34042ft 456kts
07-Jan-12 16:10 25.599059 -97.584290 204 34042ft 461kts
07-Jan-12 16:11 25.475452 -97.628476 203 34040ft 463kts
07-Jan-12 16:12 25.353479 -97.671356 203 34038ft 463kts
07-Jan-12 16:13 25.234012 -97.713404 203 34030ft 463kts
07-Jan-12 16:14 25.112533 -97.756111 203 34026ft 463kts
07-Jan-12 16:15 24.990821 -97.798704 203 34027ft 463kts
07-Jan-12 16:16 24.869463 -97.841159 203 34028ft 463kts
07-Jan-12 16:17 24.746181 -97.884233 203 34025ft 464kts
07-Jan-12 16:18 24.624029 -97.926733 203 34029ft 464kts
07-Jan-12 16:19 24.501324 -97.969358 203 34029ft 464kts
07-Jan-12 16:20 24.378469 -98.012027 203 34027ft 464kts
07-Jan-12 16:21 24.256688 -98.054196 203 34030ft 464kts
07-Jan-12 16:22 24.133975 -98.096596 203 34033ft 464kts
07-Jan-12 16:23 24.010271 -98.139268 203 34030ft 464kts
07-Jan-12 16:24 23.888793 -98.181006 203 34029ft 464kts
07-Jan-12 16:25 23.767116 -98.222806 203 34032ft 464kts
07-Jan-12 16:26 23.642707 -98.265530 203 34029ft 464kts
07-Jan-12 16:27 23.520736 -98.307201 203 34033ft 464kts
07-Jan-12 16:28 23.399833 -98.348466 203 34031ft 464kts
07-Jan-12 16:29 23.275366 -98.390906 203 34029ft 464kts
07-Jan-12 16:30 23.152957 -98.432583 203 34032ft 464kts
07-Jan-12 16:31 23.029398 -98.474413 203 34030ft 465kts
07-Jan-12 16:32 22.905384 -98.516423 203 34029ft 464kts
07-Jan-12 16:33 22.783162 -98.557693 203 34032ft 464kts
07-Jan-12 16:34 22.663127 -98.598147 203 34030ft 464kts
07-Jan-12 16:35 22.538508 -98.640134 203 34037ft 465kts
07-Jan-12 16:36 22.437656 -98.673986 203 34054ft 466kts
07-Jan-12 16:37 22.315217 -98.714946 202 34066ft 466kts
07-Jan-12 16:38 22.194741 -98.763866 204 34067ft 463kts
07-Jan-12 16:39 22.073099 -98.797494 195 34025ft 471kts
07-Jan-12 16:41 21.843358 -98.819519 190 31951ft 483kts
07-Jan-12 16:42 21.687139 -98.835882 190 29998ft 489kts
07-Jan-12 16:43 21.555520 -98.849723 191 28374ft 495kts
07-Jan-12 16:44 21.417090 -98.864266 190 26690ft 495kts
07-Jan-12 16:45 21.282604 -98.878271 191 25020ft 484kts
07-Jan-12 16:46 21.152943 -98.891591 187 23373ft 494kts
07-Jan-12 16:47 21.015182 -98.905294 187 21687ft 494kts
07-Jan-12 16:48 20.883782 -98.918173 187 20021ft 476kts
07-Jan-12 16:49 20.757717 -98.930554 186 18370ft 462kts
07-Jan-12 16:50 20.630990 -98.942969 186 16671ft 452kts
07-Jan-12 16:51 20.508041 -98.955015 185 14979ft 439kts
07-Jan-12 16:52 20.390277 -98.966510 185 14020ft 430kts
07-Jan-12 16:53 20.269654 -98.978252 185 13942ft 429kts
07-Jan-12 16:54 20.151931 -98.989731 185 13926ft 429kts
07-Jan-12 16:55 20.034070 -99.001313 185 13932ft 429kts
07-Jan-12 16:56 19.916097 -99.012799 185 13913ft 429kts
07-Jan-12 16:57 19.799933 -99.023728 182 13869ft 430kts
07-Jan-12 16:58 19.693120 -98.983968 151 13886ft 433kts
07-Jan-12 16:59 19.608228 -98.926461 145 12206ft 287kts
07-Jan-12 17:00 19.546428 -98.923988 222 9969ft 257kts
07-Jan-12 17:01 19.500358 -98.973539 229 8605ft 229kts
07-Jan-12 17:02 19.462271 -99.029176 238 7713ft 213kts
07-Jan-12 17:03 19.436468 -99.074827 246 7329ft 128kts
07-Jan-12 17:04 19.432541 -99.081775 263 7328ft 0kts

Navigation Log

Ident Type
Flight plan parsing failed, navigation log unavailable